Terminal Aerodrome Forecast
Issued by NWS Pocatello, ID

Home | Current Version | Previous Version | Text Only | Print | Product List | Glossary On
Versions: 1 2 3 4 5 6 7 8 9 10 11 12 13 14
000
FTUS45 KPIH 260500
TAFIDA
TAF
KIDA 260529Z 2606/2706 21016KT P6SM VCSH FEW010 BKN080
     FM260900 22014KT P6SM VCSH SCT008 BKN015
     FM261400 21010G20KT P6SM SCT020 BKN150
     FM262000 22012KT P6SM SCT025 BKN200
     FM270200 20007KT P6SM SCT200=

USA.gov is the U.S. government's official web portal to all federal, state and local government web resources and services.